Time;durP1;ratioP1;P1;durP2;ratioP2;P2;SDS_P1;SDS_P2;PMS_P1;PMS_P2;Temp;Humidity;BMP_temperature;BMP_pressure;BME280_temperature;BME280_humidity;BME280_pressure;Samples;Min_cycle;Max_cycle;Signal;HPM_P1;HPM_P2
2022/11/09 03:22:40;;;;;;;;;;;;;;;8.45;100.00;99061.63;5104047;23;19925;-85
2022/11/09 03:25:08;;;;;;;;;;;;;;;8.48;100.00;99060.66;5038079;28;20331;-88
2022/11/09 03:27:33;;;;;;;;;;;;;;;8.52;100.00;99064.84;5037967;28;19917;-85
2022/11/09 03:29:58;;;;;;;;;;;;;;;8.54;100.00;99061.22;5037980;28;19917;-85
2022/11/09 03:32:23;;;;;;;;;;;;;;;8.61;100.00;99063.56;5037759;28;20007;-85
2022/11/09 03:34:50;;;;;;;;;;;;;;;8.60;100.00;99062.72;5037834;28;19917;-85
2022/11/09 03:37:15;;;;;;;;;;;;;;;8.63;100.00;99065.22;5053592;28;19963;-85
2022/11/09 03:39:40;;;;;;;;;;;;;;;8.66;100.00;99061.56;5037824;28;19956;-85
2022/11/09 03:42:06;;;;;;;;;;;;;;;8.69;100.00;99064.91;5055485;28;19924;-84
2022/11/09 03:44:31;;;;;;;;;;;;;;;8.70;100.00;99071.94;5055534;28;19917;-84
2022/11/09 03:46:56;;;;;;;;;;;;;;;8.74;100.00;99075.28;5055517;28;19978;-84
2022/11/09 03:49:22;;;;;;;;;;;;;;;8.77;100.00;99061.94;5037493;28;19927;-86
2022/11/09 03:51:48;;;;;;;;;;;;;;;8.80;100.00;99058.28;5054195;28;19924;-84
2022/11/09 03:54:13;;;;;;;;;;;;;;;8.81;100.00;99060.88;5037320;28;19917;-84
2022/11/09 03:56:38;;;;;;;;;;;;;;;8.84;100.00;99054.56;5037264;28;19967;-90
2022/11/09 03:59:03;;;;;;;;;;;;;;;8.84;100.00;99058.09;5055231;28;19917;-85
2022/11/09 04:01:29;;;;;;;;;;;;;;;8.86;100.00;99058.00;5055244;28;19923;-85
2022/11/09 04:03:54;;;;;;;;;;;;;;;8.86;100.00;99064.13;5055175;28;19924;-85
2022/11/09 04:06:19;;;;;;;;;;;;;;;8.87;100.00;99050.00;5053802;28;19960;-85
2022/11/09 04:08:44;;;;;;;;;;;;;;;8.89;100.00;99037.56;5055129;28;19999;-85
2022/11/09 04:11:10;;;;;;;;;;;;;;;8.92;100.00;99047.16;5055013;28;19920;-85
2022/11/09 04:13:35;;;;;;;;;;;;;;;8.93;100.00;99042.72;5054817;28;19916;-85
2022/11/09 04:16:00;;;;;;;;;;;;;;;8.87;100.00;99034.16;5054968;28;20336;-85
2022/11/09 04:18:25;;;;;;;;;;;;;;;8.06;100.00;99030.81;5054797;28;19962;-85
2022/11/09 04:20:51;;;;;;;;;;;;;;;7.78;100.00;99032.00;5053818;28;19921;-85
2022/11/09 04:23:16;;;;;;;;;;;;;;;7.53;100.00;99042.78;5033426;28;19922;-85
2022/11/09 04:25:41;;;;;;;;;;;;;;;7.46;100.00;99052.69;5034833;28;20007;-84
2022/11/09 04:28:08;;;;;;;;;;;;;;;7.31;100.00;99063.91;5033340;28;19917;-85
2022/11/09 04:30:35;;;;;;;;;;;;;;;7.22;100.00;99072.16;5034811;28;19917;-85
2022/11/09 04:33:01;;;;;;;;;;;;;;;7.19;100.00;99077.56;5034661;28;20261;-85
2022/11/09 04:35:27;;;;;;;;;;;;;;;7.12;100.00;99086.66;5033243;28;19921;-85
2022/11/09 04:38:11;;;;;;;;;;;;;;;7.07;100.00;99089.47;5033529;28;20381;-85
2022/11/09 04:40:37;;;;;;;;;;;;;;;7.01;100.00;99081.78;5034356;28;19983;-85
2022/11/09 04:43:03;;;;;;;;;;;;;;;6.90;100.00;99079.56;5034498;28;20322;-84
2022/11/09 04:45:29;;;;;;;;;;;;;;;6.78;100.00;99085.31;5033118;28;19968;-87
2022/11/09 04:47:57;;;;;;;;;;;;;;;6.77;100.00;99083.63;5034452;28;20389;-86
2022/11/09 04:50:23;;;;;;;;;;;;;;;6.73;100.00;99067.94;5032945;28;19917;-86
2022/11/09 04:52:48;;;;;;;;;;;;;;;6.70;100.00;99049.63;5034188;28;19924;-86
2022/11/09 04:55:13;;;;;;;;;;;;;;;6.75;100.00;99022.22;5032890;28;19917;-86
2022/11/09 04:57:39;;;;;;;;;;;;;;;6.64;100.00;99012.16;5034390;28;20000;-86
2022/11/09 05:00:04;;;;;;;;;;;;;;;6.64;100.00;99020.03;5034305;28;19925;-86
2022/11/09 08:55:20;;;;;;;;;;;;;;;6.70;100.00;99223.38;5318824;23;20391;-84
2022/11/09 08:57:46;;;;;;;;;;;;;;;6.73;100.00;99231.19;5034233;28;19952;-85
2022/11/09 09:00:19;;;;;;;;;;;;;;;6.70;100.00;99236.56;5034445;28;20330;-87
2022/11/09 09:02:46;;;;;;;;;;;;;;;6.70;100.00;99233.91;5034003;28;19920;-87
2022/11/09 09:05:26;;;;;;;;;;;;;;;6.72;100.00;99234.72;5034093;28;20332;-89
2022/11/09 09:07:51;;;;;;;;;;;;;;;6.70;100.00;99243.56;5034025;28;19917;-87
2022/11/09 09:10:17;;;;;;;;;;;;;;;6.67;100.00;99246.31;5032754;28;19959;-87
2022/11/09 09:12:42;;;;;;;;;;;;;;;6.60;100.00;99245.66;5029404;28;19951;-87
2022/11/09 09:15:07;;;;;;;;;;;;;;;6.57;100.00;99243.13;5032584;28;19956;-87
2022/11/09 09:17:34;;;;;;;;;;;;;;;6.45;100.00;99251.50;5032153;28;19921;-87
2022/11/09 09:20:00;;;;;;;;;;;;;;;6.45;100.00;99248.84;5015064;28;20012;-90
2022/11/09 09:22:25;;;;;;;;;;;;;;;6.41;100.00;99253.34;5025061;28;19968;-86
2022/11/09 09:24:50;;;;;;;;;;;;;;;6.38;100.00;99249.97;5031148;28;20334;-87
2022/11/09 09:27:15;;;;;;;;;;;;;;;6.24;100.00;99243.41;5032333;28;19917;-86
2022/11/09 09:29:41;;;;;;;;;;;;;;;6.22;100.00;99245.22;5025448;28;20379;-87
2022/11/09 09:32:06;;;;;;;;;;;;;;;6.21;100.00;99251.41;5012541;28;19921;-87
2022/11/09 09:34:31;;;;;;;;;;;;;;;6.19;100.00;99261.13;5023746;28;19921;-87
2022/11/09 09:36:56;;;;;;;;;;;;;;;6.18;100.00;99262.88;5020019;28;20288;-86
2022/11/09 09:39:22;;;;;;;;;;;;;;;6.17;100.00;99265.56;5012552;28;19925;-87
2022/11/09 09:41:55;;;;;;;;;;;;;;;6.15;100.00;99262.13;5012496;28;20004;-88
2022/11/09 09:44:20;;;;;;;;;;;;;;;6.07;100.00;99270.25;5012550;28;20372;-87
2022/11/09 09:46:54;;;;;;;;;;;;;;;6.14;100.00;99268.28;5015304;28;19979;-87
2022/11/09 09:49:25;;;;;;;;;;;;;;;6.05;100.00;99273.84;5029103;28;19917;-87
2022/11/09 09:51:54;;;;;;;;;;;;;;;6.16;100.00;99279.66;5031883;28;20358;-86
2022/11/09 09:54:35;;;;;;;;;;;;;;;6.20;100.00;99286.50;5024580;28;20412;-91
2022/11/09 09:57:00;;;;;;;;;;;;;;;6.22;100.00;99291.72;5029031;28;19921;-86
2022/11/09 09:59:42;;;;;;;;;;;;;;;6.16;100.00;99290.16;5032645;28;19931;-88
2022/11/09 10:02:24;;;;;;;;;;;;;;;6.24;100.00;99301.28;5031169;28;19925;-87
2022/11/09 10:04:51;;;;;;;;;;;;;;;6.13;100.00;99306.91;5022439;28;20496;-88
2022/11/09 10:07:31;;;;;;;;;;;;;;;6.10;100.00;99301.72;5016947;28;20035;-87
2022/11/09 10:09:59;;;;;;;;;;;;;;;6.12;100.00;99301.69;5031973;28;19917;-90
2022/11/09 10:12:43;;;;;;;;;;;;;;;6.08;100.00;99290.41;5029382;28;19925;-87
2022/11/09 10:15:21;;;;;;;;;;;;;;;6.11;100.00;99298.19;5029041;28;19921;-87
2022/11/09 10:18:03;;;;;;;;;;;;;;;6.09;100.00;99307.03;5027890;28;19921;-87
2022/11/09 10:20:35;;;;;;;;;;;;;;;5.97;100.00;99305.69;5012118;28;19975;-87
2022/11/09 10:23:15;;;;;;;;;;;;;;;6.05;100.00;99298.41;5014760;28;19928;-94
2022/11/09 10:25:44;;;;;;;;;;;;;;;5.98;100.00;99304.75;5015748;28;19918;-92
2022/11/09 10:28:14;;;;;;;;;;;;;;;6.09;100.00;99299.16;5012045;28;19917;-88
2022/11/09 10:31:00;;;;;;;;;;;;;;;6.10;100.00;99308.78;5013726;28;20016;-91
2022/11/09 10:33:27;;;;;;;;;;;;;;;6.03;100.00;99300.22;5018997;28;20441;-87
2022/11/09 10:35:56;;;;;;;;;;;;;;;6.03;100.00;99300.22;5020811;28;19928;-86
2022/11/09 10:38:26;;;;;;;;;;;;;;;5.92;100.00;99299.66;5022783;28;19917;-88
2022/11/09 10:40:53;;;;;;;;;;;;;;;5.99;100.00;99302.06;5031969;28;19918;-87
2022/11/09 10:43:18;;;;;;;;;;;;;;;5.90;100.00;99293.59;5031572;28;19917;-88
2022/11/09 10:45:44;;;;;;;;;;;;;;;5.87;100.00;99294.56;5031885;28;19940;-88
2022/11/09 10:48:11;;;;;;;;;;;;;;;5.93;100.00;99288.22;5035454;28;20011;-88
2022/11/09 10:50:40;;;;;;;;;;;;;;;5.82;100.00;99285.94;5035572;28;20418;-87
2022/11/09 10:53:12;;;;;;;;;;;;;;;6.15;100.00;99281.38;5036732;28;19925;-87
2022/11/09 10:55:37;;;;;;;;;;;;;;;6.60;100.00;99282.53;5035124;28;19921;-88
2022/11/09 10:58:19;;;;;;;;;;;;;;;6.91;100.00;99281.47;5035293;28;20295;-88
2022/11/09 11:01:01;;;;;;;;;;;;;;;7.14;100.00;99287.66;5036406;28;19979;-88
2022/11/09 11:03:28;;;;;;;;;;;;;;;7.25;100.00;99282.84;5036573;28;20252;-87
2022/11/09 11:05:57;;;;;;;;;;;;;;;7.42;100.00;99282.22;5036364;28;19923;-87
2022/11/09 11:08:24;;;;;;;;;;;;;;;7.46;100.00;99275.91;5036854;28;19917;-88
2022/11/09 11:10:50;;;;;;;;;;;;;;;7.58;100.00;99274.59;5031460;28;19927;-87
2022/11/09 11:13:19;;;;;;;;;;;;;;;7.68;100.00;99268.03;5021834;28;20295;-86
2022/11/09 11:15:45;;;;;;;;;;;;;;;7.76;100.00;99273.00;5016587;28;20364;-87
2022/11/09 11:18:16;;;;;;;;;;;;;;;7.81;100.00;99269.25;5034861;28;20007;-87
2022/11/09 11:20:41;;;;;;;;;;;;;;;7.89;100.00;99276.03;5033625;28;19961;-87
2022/11/09 11:23:18;;;;;;;;;;;;;;;7.92;100.00;99275.91;5032140;28;19967;-87
2022/11/09 11:25:53;;;;;;;;;;;;;;;7.97;100.00;99273.94;5033160;28;19923;-91
2022/11/09 11:28:37;;;;;;;;;;;;;;;8.00;100.00;99271.16;5030630;28;19956;-87
2022/11/09 11:31:02;;;;;;;;;;;;;;;8.06;100.00;99268.28;5026401;28;19917;-87
2022/11/09 11:33:30;;;;;;;;;;;;;;;8.11;100.00;99274.22;5016668;28;19918;-86
2022/11/09 11:36:05;;;;;;;;;;;;;;;8.19;100.00;99284.47;5014668;28;19922;-86
2022/11/09 11:38:36;;;;;;;;;;;;;;;8.24;100.00;99279.00;5022838;28;20279;-86
2022/11/09 11:41:20;;;;;;;;;;;;;;;8.24;100.00;99276.38;5035722;28;19947;-87
2022/11/09 11:43:45;;;;;;;;;;;;;;;8.30;100.00;99276.13;5032285;28;19921;-88
2022/11/09 11:46:13;;;;;;;;;;;;;;;8.34;100.00;99277.69;5023342;28;19921;-87
2022/11/09 11:48:42;;;;;;;;;;;;;;;8.41;100.00;99279.16;5034414;28;19924;-87
2022/11/09 11:51:16;;;;;;;;;;;;;;;8.44;100.00;99273.78;5019353;28;19929;-88
2022/11/09 11:53:54;;;;;;;;;;;;;;;8.49;100.00;99273.59;5015743;28;20396;-87
2022/11/09 11:56:22;;;;;;;;;;;;;;;8.53;100.00;99272.53;5014195;28;20422;-87
2022/11/09 11:58:54;;;;;;;;;;;;;;;8.55;100.00;99275.94;5017627;28;19921;-87
2022/11/09 12:01:38;;;;;;;;;;;;;;;8.61;100.00;99277.50;5035405;28;19921;-89
2022/11/09 12:04:09;;;;;;;;;;;;;;;8.63;100.00;99288.84;5029524;28;19928;-86
2022/11/09 12:06:47;;;;;;;;;;;;;;;8.65;100.00;99277.28;5026521;28;19929;-87
2022/11/09 12:09:18;;;;;;;;;;;;;;;8.69;100.00;99283.28;5031654;28;19968;-87
2022/11/09 12:12:02;;;;;;;;;;;;;;;8.71;100.00;99282.31;5030006;28;20019;-87
2022/11/09 12:14:53;;;;;;;;;;;;;;;8.70;100.00;99277.09;5015212;28;19921;-87
2022/11/09 12:17:31;;;;;;;;;;;;;;;8.74;100.00;99281.31;5016013;28;19928;-87
2022/11/09 12:20:08;;;;;;;;;;;;;;;8.76;100.00;99279.47;5014038;28;19917;-87
2022/11/09 12:22:44;;;;;;;;;;;;;;;8.77;100.00;99283.81;5020883;28;19924;-87
2022/11/09 12:25:12;;;;;;;;;;;;;;;8.80;100.00;99278.41;5033713;28;19917;-86
2022/11/09 12:27:41;;;;;;;;;;;;;;;8.81;100.00;99271.34;5029353;28;20292;-84
2022/11/09 12:30:16;;;;;;;;;;;;;;;8.82;100.00;99275.69;5017670;28;20309;-85
2022/11/09 12:32:53;;;;;;;;;;;;;;;8.82;100.00;99273.94;5031172;28;20069;-84
2022/11/09 12:35:29;;;;;;;;;;;;;;;8.84;100.00;99281.75;5025032;28;19964;-84
2022/11/09 12:37:59;;;;;;;;;;;;;;;8.85;100.00;99272.91;5031167;28;20170;-83
2022/11/09 12:40:25;;;;;;;;;;;;;;;8.88;100.00;99283.34;5026896;28;19925;-84
2022/11/09 12:43:09;;;;;;;;;;;;;;;8.91;100.00;99277.94;5033295;28;19917;-85
2022/11/09 12:45:37;;;;;;;;;;;;;;;8.90;100.00;99282.38;5030340;28;19925;-84
2022/11/09 12:48:13;;;;;;;;;;;;;;;8.93;100.00;99285.78;5028891;28;20311;-85
2022/11/09 12:50:38;;;;;;;;;;;;;;;9.14;100.00;99287.47;5029865;28;19918;-83
2022/11/09 12:53:04;;;;;;;;;;;;;;;8.31;100.00;99289.25;5032775;28;19967;-85
2022/11/09 12:55:42;;;;;;;;;;;;;;;8.02;100.00;99276.38;5027731;28;20472;-84
2022/11/09 12:58:18;;;;;;;;;;;;;;;11.92;100.00;99276.22;5021584;28;20016;-84
2022/11/09 13:00:44;;;;;;;;;;;;;;;12.58;100.00;99275.06;5026201;28;20342;-85
2022/11/09 13:03:30;;;;;;;;;;;;;;;9.24;100.00;99280.84;5029030;28;19921;-85
2022/11/09 13:06:15;;;;;;;;;;;;;;;8.42;100.00;99277.38;5032110;28;19981;-84
2022/11/09 13:08:42;;;;;;;;;;;;;;;8.03;100.00;99284.25;5028464;28;19936;-85
2022/11/09 13:11:16;;;;;;;;;;;;;;;7.92;100.00;99286.44;5012090;28;19917;-85
2022/11/09 13:13:41;;;;;;;;;;;;;;;7.77;100.00;99270.31;5027555;28;19975;-85
2022/11/09 13:16:07;;;;;;;;;;;;;;;7.62;100.00;99278.81;5028943;28;19921;-85
2022/11/09 13:18:38;;;;;;;;;;;;;;;7.63;100.00;99280.53;5012880;28;19947;-85
2022/11/09 13:21:21;;;;;;;;;;;;;;;7.53;100.00;99285.31;5028352;28;19921;-86
2022/11/09 13:23:51;;;;;;;;;;;;;;;7.48;100.00;99279.34;5011619;28;19917;-85
2022/11/09 13:26:31;;;;;;;;;;;;;;;7.46;100.00;99283.81;5014102;28;20383;-84
2022/11/09 13:29:15;;;;;;;;;;;;;;;7.41;100.00;99286.63;5014011;28;19917;-85
2022/11/09 13:31:59;;;;;;;;;;;;;;;7.34;100.00;99290.44;5029202;28;19918;-85
2022/11/09 13:34:41;;;;;;;;;;;;;;;7.32;100.00;99284.34;5032680;28;19925;-84
2022/11/09 13:37:25;;;;;;;;;;;;;;;7.26;100.00;99288.06;5024892;28;19922;-85
2022/11/09 13:39:51;;;;;;;;;;;;;;;7.23;100.00;99288.19;5028137;28;19925;-85
2022/11/09 13:42:29;;;;;;;;;;;;;;;7.09;100.00;99291.31;5031434;28;19928;-85
2022/11/09 13:45:14;;;;;;;;;;;;;;;6.99;100.00;99295.22;5025235;28;19922;-85
2022/11/09 13:47:48;;;;;;;;;;;;;;;7.04;100.00;99287.16;5016098;28;19928;-85
2022/11/09 13:50:21;;;;;;;;;;;;;;;6.96;100.00;99289.22;5032152;28;19964;-85
2022/11/09 13:52:48;;;;;;;;;;;;;;;6.93;100.00;99292.78;5023376;28;19921;-86
2022/11/09 13:55:16;;;;;;;;;;;;;;;6.97;100.00;99299.66;5028093;28;20372;-85
2022/11/09 13:57:42;;;;;;;;;;;;;;;6.88;100.00;99306.13;5032199;28;20050;-85
2022/11/09 14:00:22;;;;;;;;;;;;;;;6.86;100.00;99305.31;5032070;28;19917;-85
2022/11/09 14:02:59;;;;;;;;;;;;;;;6.83;100.00;99315.09;5020845;28;19925;-84
2022/11/09 14:05:30;;;;;;;;;;;;;;;6.81;100.00;99319.56;5013340;28;19918;-84
2022/11/09 14:07:58;;;;;;;;;;;;;;;6.80;100.00;99316.06;5013542;28;20011;-90
2022/11/09 14:10:38;;;;;;;;;;;;;;;6.76;100.00;99324.13;5015417;28;19917;-85
2022/11/09 14:13:22;;;;;;;;;;;;;;;6.71;100.00;99321.66;5012171;28;19922;-85
2022/11/09 14:15:53;;;;;;;;;;;;;;;6.73;100.00;99315.44;5012328;28;20371;-85
2022/11/09 14:18:18;;;;;;;;;;;;;;;6.64;100.00;99326.28;5013464;28;20296;-85
2022/11/09 14:20:53;;;;;;;;;;;;;;;6.62;100.00;99322.84;5024354;28;19929;-84
2022/11/09 14:23:23;;;;;;;;;;;;;;;6.59;100.00;99322.06;5036355;28;19921;-83
2022/11/09 14:25:48;;;;;;;;;;;;;;;6.57;100.00;99314.22;5021451;28;19925;-83
2022/11/09 14:28:19;;;;;;;;;;;;;;;6.65;100.00;99311.31;5026040;28;19928;-82
2022/11/09 14:30:45;;;;;;;;;;;;;;;6.60;100.00;99327.28;5029480;28;19925;-83
2022/11/09 14:33:18;;;;;;;;;;;;;;;6.48;100.00;99330.34;5035187;28;20279;-83
2022/11/09 14:35:43;;;;;;;;;;;;;;;6.48;100.00;99335.59;5023726;28;19933;-83
2022/11/09 14:38:16;;;;;;;;;;;;;;;6.50;100.00;99341.66;5031636;28;20284;-83
2022/11/09 14:40:44;;;;;;;;;;;;;;;6.56;100.00;99344.09;5028300;28;20004;-83
2022/11/09 14:43:28;;;;;;;;;;;;;;;6.54;100.00;99351.16;5026775;28;19921;-83
2022/11/09 14:45:57;;;;;;;;;;;;;;;6.42;100.00;99354.22;5021263;28;19929;-83
2022/11/09 14:48:23;;;;;;;;;;;;;;;6.40;100.00;99342.88;5030559;28;20019;-83
2022/11/09 14:50:50;;;;;;;;;;;;;;;6.43;100.00;99342.78;5031300;28;20012;-82
2022/11/09 14:53:21;;;;;;;;;;;;;;;6.41;100.00;99341.97;5030696;28;19925;-83
2022/11/09 14:55:47;;;;;;;;;;;;;;;6.47;100.00;99354.94;5034581;28;19974;-84
2022/11/09 14:58:13;;;;;;;;;;;;;;;6.43;100.00;99343.66;5030202;28;19928;-85
2022/11/09 15:00:38;;;;;;;;;;;;;;;6.40;100.00;99340.25;5022175;28;19917;-85
2022/11/09 15:03:39;;;;;;;;;;;;;;;6.33;100.00;99342.22;5035358;28;20122;-85
2022/11/09 15:06:07;;;;;;;;;;;;;;;6.34;100.00;99352.69;4958301;28;19929;-81
2022/11/09 15:08:33;;;;;;;;;;;;;;;6.26;100.00;99346.81;5019692;28;20397;-83
2022/11/09 15:10:58;;;;;;;;;;;;;;;6.32;100.00;99359.78;5035144;28;19917;-85
2022/11/09 15:13:30;;;;;;;;;;;;;;;6.33;100.00;99356.25;5048384;28;20420;-84
2022/11/09 15:15:55;;;;;;;;;;;;;;;6.29;100.00;99349.34;5033156;28;19932;-91
2022/11/09 15:18:24;;;;;;;;;;;;;;;6.24;100.00;99358.28;5015010;28;19921;-84
2022/11/09 15:21:08;;;;;;;;;;;;;;;6.14;100.00;99358.59;5015147;28;20019;-84
2022/11/09 15:23:41;;;;;;;;;;;;;;;6.23;100.00;99365.34;5013721;28;19917;-82
2022/11/09 15:26:23;;;;;;;;;;;;;;;6.18;100.00;99364.63;5019303;28;19940;-84
2022/11/09 15:28:49;;;;;;;;;;;;;;;6.16;100.00;99364.69;5028787;28;20534;-84
2022/11/09 15:31:15;;;;;;;;;;;;;;;6.22;100.00;99360.13;5034531;28;19960;-84
2022/11/09 15:33:44;;;;;;;;;;;;;;;6.18;100.00;99364.63;5032670;28;20395;-83
2022/11/09 15:36:18;;;;;;;;;;;;;;;6.11;100.00;99365.72;5019810;28;19922;-84
2022/11/09 15:38:53;;;;;;;;;;;;;;;6.13;100.00;99367.41;5018499;28;20012;-83
2022/11/09 15:41:19;;;;;;;;;;;;;;;6.11;100.00;99370.97;5016959;28;19973;-85
2022/11/09 15:43:44;;;;;;;;;;;;;;;6.07;100.00;99375.47;5028449;28;19928;-83
2022/11/09 15:46:13;;;;;;;;;;;;;;;6.06;100.00;99383.41;5015884;28;20377;-83
2022/11/09 15:48:39;;;;;;;;;;;;;;;6.05;100.00;99386.94;5017681;28;19952;-83
2022/11/09 15:51:04;;;;;;;;;;;;;;;6.06;100.00;99391.31;5035610;28;20331;-83
2022/11/09 15:53:31;;;;;;;;;;;;;;;6.08;100.00;99385.09;5033556;28;20368;-83
2022/11/09 15:55:56;;;;;;;;;;;;;;;6.03;100.00;99391.41;5028478;28;19928;-83
2022/11/09 15:58:22;;;;;;;;;;;;;;;6.02;100.00;99400.22;5019419;28;19925;-83
2022/11/09 16:00:47;;;;;;;;;;;;;;;5.98;100.00;99404.69;5022919;28;20339;-84
2022/11/09 16:03:12;;;;;;;;;;;;;;;6.02;100.00;99408.97;5031091;28;19964;-83
2022/11/09 16:05:38;;;;;;;;;;;;;;;5.95;100.00;99417.88;5023262;28;20023;-91
2022/11/09 16:08:06;;;;;;;;;;;;;;;5.95;100.00;99417.88;5024264;28;19968;-83
2022/11/09 16:10:36;;;;;;;;;;;;;;;5.96;100.00;99414.38;5031670;28;19967;-83
2022/11/09 16:13:01;;;;;;;;;;;;;;;5.95;100.00;99424.03;5022849;28;19927;-83
2022/11/09 16:15:26;;;;;;;;;;;;;;;5.93;100.00;99428.47;5015311;28;20016;-84
2022/11/09 16:17:52;;;;;;;;;;;;;;;5.92;100.00;99432.00;5015119;28;20628;-83
2022/11/09 16:20:17;;;;;;;;;;;;;;;5.93;100.00;99431.09;5028887;28;19921;-83
2022/11/09 16:22:43;;;;;;;;;;;;;;;5.90;100.00;99439.06;5033990;28;20291;-83
2022/11/09 16:25:08;;;;;;;;;;;;;;;5.93;100.00;99449.50;5033099;28;20340;-84
2022/11/09 16:27:34;;;;;;;;;;;;;;;5.95;100.00;99445.06;5034275;28;20279;-83
2022/11/09 16:30:00;;;;;;;;;;;;;;;5.92;100.00;99446.91;5034455;28;20372;-83
2022/11/09 16:32:25;;;;;;;;;;;;;;;5.81;100.00;99455.97;5033531;28;20007;-83
2022/11/09 16:34:50;;;;;;;;;;;;;;;5.82;100.00;99452.47;5034630;28;19929;-84
2022/11/09 16:37:16;;;;;;;;;;;;;;;5.85;100.00;99456.75;5034750;28;19925;-84
2022/11/09 16:39:41;;;;;;;;;;;;;;;5.84;100.00;99468.19;5032122;28;19917;-83
2022/11/09 16:42:08;;;;;;;;;;;;;;;5.77;100.00;99474.50;5034617;28;19924;-83
2022/11/09 16:44:35;;;;;;;;;;;;;;;5.77;100.00;99470.09;5031625;28;19944;-83
2022/11/09 16:47:04;;;;;;;;;;;;;;;5.79;100.00;99483.22;5014811;28;20326;-84
2022/11/09 16:49:30;;;;;;;;;;;;;;;5.84;100.00;99483.97;5036270;28;20008;-83
2022/11/09 16:51:55;;;;;;;;;;;;;;;5.79;100.00;99488.47;5054341;28;19968;-83
2022/11/09 16:54:20;;;;;;;;;;;;;;;5.77;100.00;99492.91;5038128;28;20341;-83
2022/11/09 16:56:46;;;;;;;;;;;;;;;5.86;100.00;99503.19;5027725;28;19968;-83
2022/11/09 16:59:12;;;;;;;;;;;;;;;5.83;100.00;99511.16;5033894;28;19963;-83
2022/11/09 17:01:37;;;;;;;;;;;;;;;5.88;100.00;99513.66;5033188;28;20352;-83
2022/11/09 17:04:02;;;;;;;;;;;;;;;5.90;100.00;99512.69;5031483;28;19925;-83
2022/11/09 17:06:28;;;;;;;;;;;;;;;5.83;100.00;99516.41;5038757;28;19925;-83
2022/11/09 17:08:56;;;;;;;;;;;;;;;5.75;100.00;99518.41;5032348;28;20602;-83
2022/11/09 17:11:21;;;;;;;;;;;;;;;5.77;100.00;99524.47;5032907;28;19921;-83
2022/11/09 17:13:47;;;;;;;;;;;;;;;5.82;100.00;99526.09;5033928;28;19963;-83
2022/11/09 17:16:12;;;;;;;;;;;;;;;5.71;100.00;99537.78;5033989;28;19971;-83
2022/11/09 17:18:38;;;;;;;;;;;;;;;5.67;100.00;99534.38;5033039;28;19917;-83
2022/11/09 17:21:13;;;;;;;;;;;;;;;5.73;100.00;99533.38;5034242;28;19917;-83
2022/11/09 17:23:39;;;;;;;;;;;;;;;5.71;100.00;99541.28;5031973;28;20295;-83
2022/11/09 17:26:05;;;;;;;;;;;;;;;5.74;100.00;99538.53;5031545;28;20368;-83
2022/11/09 17:28:31;;;;;;;;;;;;;;;5.72;100.00;99552.66;5014058;28;19921;-83
2022/11/09 17:30:59;;;;;;;;;;;;;;;5.74;100.00;99558.72;5013884;28;19996;-83
2022/11/09 17:33:24;;;;;;;;;;;;;;;5.65;100.00;99567.75;5013879;28;19917;-84
2022/11/09 17:36:00;;;;;;;;;;;;;;;5.71;100.00;99569.31;5013834;28;20292;-83
2022/11/09 17:38:25;;;;;;;;;;;;;;;5.69;100.00;99564.09;5021137;28;19925;-83
2022/11/09 17:40:50;;;;;;;;;;;;;;;5.71;100.00;99562.31;5018719;28;19966;-83
2022/11/09 17:43:16;;;;;;;;;;;;;;;5.68;100.00;99564.16;5029738;28;20051;-83
2022/11/09 17:45:41;;;;;;;;;;;;;;;5.59;100.00;99574.00;5032936;28;19925;-83
2022/11/09 17:48:07;;;;;;;;;;;;;;;5.60;100.00;99567.84;5033328;28;19917;-84
2022/11/09 17:50:32;;;;;;;;;;;;;;;5.62;100.00;99576.56;5033320;28;19932;-83
2022/11/09 17:52:57;;;;;;;;;;;;;;;5.68;100.00;99577.28;5033153;28;20017;-83
2022/11/09 17:55:23;;;;;;;;;;;;;;;6.22;100.00;99583.75;5031670;28;19921;-84
2022/11/09 17:57:48;;;;;;;;;;;;;;;5.99;100.00;99591.38;5033038;28;19924;-83
2022/11/09 18:00:13;;;;;;;;;;;;;;;5.86;100.00;99589.97;5030067;28;19924;-84
2022/11/09 18:02:39;;;;;;;;;;;;;;;5.88;100.00;99592.56;5027978;28;19964;-84
2022/11/09 18:05:06;;;;;;;;;;;;;;;5.75;100.00;99590.25;5017853;28;19953;-84
2022/11/09 18:07:32;;;;;;;;;;;;;;;5.67;100.00;99591.34;5016194;28;19917;-84
2022/11/09 18:09:57;;;;;;;;;;;;;;;5.75;100.00;99590.25;5031323;28;19927;-83
2022/11/09 18:12:22;;;;;;;;;;;;;;;5.84;100.00;99597.03;5029622;28;20323;-84
2022/11/09 18:14:48;;;;;;;;;;;;;;;6.42;100.00;99602.47;5036839;28;20012;-84
2022/11/09 18:17:13;;;;;;;;;;;;;;;6.90;100.00;99601.06;5034410;28;20311;-84
2022/11/09 18:19:38;;;;;;;;;;;;;;;7.17;100.00;99609.03;5031196;28;20013;-85
2022/11/09 18:22:03;;;;;;;;;;;;;;;7.37;100.00;99609.25;5021709;28;19922;-83
2022/11/09 18:24:30;;;;;;;;;;;;;;;7.50;100.00;99606.19;5028833;28;19950;-84
2022/11/09 18:26:56;;;;;;;;;;;;;;;7.62;100.00;99613.69;5032812;28;20019;-84
2022/11/09 18:29:21;;;;;;;;;;;;;;;7.72;100.00;99623.03;5031556;28;19932;-84
2022/11/09 18:31:46;;;;;;;;;;;;;;;7.80;100.00;99623.66;5032787;28;20342;-84
2022/11/09 18:34:12;;;;;;;;;;;;;;;7.87;100.00;99631.34;5032820;28;20446;-84
2022/11/09 18:36:37;;;;;;;;;;;;;;;7.94;100.00;99636.34;5032629;28;20346;-84
2022/11/09 18:39:03;;;;;;;;;;;;;;;8.04;100.00;99633.38;5031719;28;19999;-83
2022/11/09 18:41:28;;;;;;;;;;;;;;;8.09;100.00;99639.34;5023786;28;19921;-84
2022/11/09 18:43:54;;;;;;;;;;;;;;;8.15;100.00;99640.03;5013041;28;19965;-83
2022/11/09 18:46:20;;;;;;;;;;;;;;;8.21;100.00;99638.09;5030561;28;19913;-83
2022/11/09 18:48:48;;;;;;;;;;;;;;;8.24;100.00;99641.47;5032658;28;19976;-83
2022/11/09 18:51:14;;;;;;;;;;;;;;;8.30;100.00;99645.69;5032672;28;19913;-83
2022/11/09 18:53:43;;;;;;;;;;;;;;;8.33;100.00;99656.13;5026481;28;19928;-84
2022/11/09 18:56:17;;;;;;;;;;;;;;;8.39;100.00;99649.75;5032421;28;19929;-84
2022/11/09 18:58:45;;;;;;;;;;;;;;;8.44;100.00;99650.47;5032170;28;19921;-84
2022/11/09 19:01:10;;;;;;;;;;;;;;;8.46;100.00;99657.44;5035974;28;20086;-84
2022/11/09 19:03:36;;;;;;;;;;;;;;;8.50;100.00;99659.06;5032466;28;19921;-83
2022/11/09 19:06:05;;;;;;;;;;;;;;;8.52;100.00;99659.84;5024933;28;20068;-83
2022/11/09 19:11:14;;;;;;;;;;;;;;;8.61;100.00;99660.44;5026782;28;20379;-83
2022/11/09 19:13:40;;;;;;;;;;;;;;;8.65;100.00;99664.69;5016398;28;19921;-84
2022/11/09 19:16:06;;;;;;;;;;;;;;;8.68;100.00;99667.19;5017685;28;20332;-84
2022/11/09 19:18:31;;;;;;;;;;;;;;;8.71;100.00;99669.72;5025698;28;19928;-83
2022/11/09 19:20:56;;;;;;;;;;;;;;;8.73;100.00;99670.56;5027234;28;20288;-83
2022/11/09 19:23:22;;;;;;;;;;;;;;;8.75;100.00;99679.28;5026055;28;19965;-83
2022/11/09 19:25:49;;;;;;;;;;;;;;;8.80;100.00;99674.69;5018033;28;19917;-83
2022/11/09 19:28:14;;;;;;;;;;;;;;;8.82;100.00;99685.19;5028242;28;20461;-81
2022/11/09 19:30:39;;;;;;;;;;;;;;;8.84;100.00;99692.16;5028351;28;19999;-84
2022/11/09 19:33:05;;;;;;;;;;;;;;;8.86;100.00;99700.03;5026139;28;19925;-83
2022/11/09 19:35:30;;;;;;;;;;;;;;;8.89;100.00;99702.56;5027457;28;19965;-83
2022/11/09 19:37:56;;;;;;;;;;;;;;;8.89;100.00;99703.41;5029734;28;19921;-84
2022/11/09 19:40:21;;;;;;;;;;;;;;;8.90;100.00;99705.16;5038124;28;19921;-84
2022/11/09 19:42:46;;;;;;;;;;;;;;;8.92;100.00;99713.00;5030629;28;19918;-82
2022/11/09 19:45:12;;;;;;;;;;;;;;;8.95;100.00;99710.25;5030521;28;20407;-83
2022/11/09 19:47:37;;;;;;;;;;;;;;;8.22;100.00;99711.94;5031268;28;19921;-85
2022/11/09 19:50:03;;;;;;;;;;;;;;;7.75;100.00;99709.09;5027019;28;19921;-84
2022/11/09 19:52:28;;;;;;;;;;;;;;;7.52;100.00;99709.84;5031800;28;20008;-84
2022/11/09 19:54:53;;;;;;;;;;;;;;;7.43;100.00;99721.53;5028726;28;19929;-84
2022/11/09 19:57:18;;;;;;;;;;;;;;;7.36;100.00;99715.59;5031712;28;19967;-86
2022/11/09 19:59:44;;;;;;;;;;;;;;;7.29;100.00;99719.31;5025411;28;19925;-85
2022/11/09 20:02:09;;;;;;;;;;;;;;;7.23;100.00;99719.53;5025832;28;20285;-84
2022/11/09 20:04:35;;;;;;;;;;;;;;;7.18;100.00;99724.94;5029003;28;19925;-84
2022/11/09 20:07:00;;;;;;;;;;;;;;;6.99;100.00;99729.88;5030819;28;20066;-81
2022/11/09 20:09:28;;;;;;;;;;;;;;;7.00;100.00;99731.59;5039725;28;20007;-83
2022/11/09 20:14:37;;;;;;;;;;;;;;;6.84;100.00;99733.78;5023109;28;20471;-82
2022/11/09 20:17:03;;;;;;;;;;;;;;;6.91;100.00;99739.78;5022080;28;20008;-83